Time;durP1;ratioP1;P1;durP2;ratioP2;P2;SDS_P1;SDS_P2;PMS_P1;PMS_P2;Temp;Humidity;BMP_temperature;BMP_pressure;BME280_temperature;BME280_humidity;BME280_pressure;Samples;Min_cycle;Max_cycle;Signal;HPM_P1;HPM_P2
2021/07/16 00:01:54;;;;;;;10.07;6.13;;;17.40;99.90;;;;;;5032641;28;20034;-40
2021/07/16 00:04:20;;;;;;;12.27;6.45;;;17.40;99.90;;;;;;5023854;28;20040;-40
2021/07/16 00:06:46;;;;;;;7.78;5.10;;;17.40;99.90;;;;;;5027441;28;20116;-40
2021/07/16 00:09:13;;;;;;;8.85;5.07;;;17.40;99.90;;;;;;5026918;28;20026;-40
2021/07/16 00:11:39;;;;;;;9.07;5.68;;;17.40;99.90;;;;;;5024872;28;20056;-40
2021/07/16 00:14:05;;;;;;;11.15;6.43;;;17.40;99.90;;;;;;5029016;28;20025;-40
2021/07/16 00:16:31;;;;;;;8.90;5.32;;;17.40;99.90;;;;;;5021838;28;20040;-42
2021/07/16 00:18:57;;;;;;;8.85;5.57;;;17.40;99.90;;;;;;5030104;28;20018;-40
2021/07/16 00:21:24;;;;;;;10.55;5.88;;;17.40;99.90;;;;;;5020103;28;20480;-40
2021/07/16 00:23:49;;;;;;;8.55;5.28;;;17.40;99.90;;;;;;5031154;28;20029;-40
2021/07/16 00:26:15;;;;;;;10.10;6.10;;;17.40;99.90;;;;;;5020576;28;20021;-40
2021/07/16 00:28:42;;;;;;;9.80;6.20;;;17.40;99.90;;;;;;5030590;28;20071;-40
2021/07/16 00:31:08;;;;;;;13.05;6.18;;;17.40;99.90;;;;;;5018826;28;20101;-41
2021/07/16 00:33:33;;;;;;;12.57;6.57;;;17.40;99.90;;;;;;5031187;28;20480;-41
2021/07/16 00:36:00;;;;;;;11.57;6.65;;;17.40;99.90;;;;;;5018915;28;20152;-40
2021/07/16 00:38:26;;;;;;;12.13;6.60;;;17.40;99.90;;;;;;5031279;28;20021;-41
2021/07/16 00:40:51;;;;;;;11.80;6.93;;;17.40;99.90;;;;;;5020333;28;20497;-41
2021/07/16 00:43:17;;;;;;;12.90;6.57;;;17.40;99.90;;;;;;5029689;28;20026;-41
2021/07/16 00:45:42;;;;;;;10.18;6.43;;;17.40;99.90;;;;;;5023260;28;20305;-40
2021/07/16 00:48:08;;;;;;;11.52;6.78;;;17.30;99.90;;;;;;5027067;28;20061;-37
2021/07/16 00:50:36;;;;;;;15.77;7.10;;;17.30;99.90;;;;;;5025426;28;20022;-40
2021/07/16 00:53:04;;;;;;;11.52;6.47;;;17.30;99.90;;;;;;5024000;28;20025;-42
2021/07/16 00:55:31;;;;;;;13.27;7.05;;;17.30;99.90;;;;;;5026977;28;20499;-40
2021/07/16 00:57:57;;;;;;;12.60;6.55;;;17.30;99.90;;;;;;5022723;28;20026;-40
2021/07/16 01:00:23;;;;;;;12.43;6.38;;;17.30;99.90;;;;;;5029325;28;20041;-37
2021/07/16 01:02:49;;;;;;;10.70;6.85;;;17.30;99.90;;;;;;5019668;28;20075;-39
2021/07/16 01:05:16;;;;;;;11.73;6.97;;;17.20;99.90;;;;;;5029671;28;20014;-38
2021/07/16 01:07:44;;;;;;;13.60;7.22;;;17.20;99.90;;;;;;5019353;28;20488;-39
2021/07/16 01:10:10;;;;;;;11.77;6.93;;;17.20;99.90;;;;;;5029703;28;20362;-41
2021/07/16 01:12:38;;;;;;;12.18;6.78;;;17.30;99.90;;;;;;5018509;28;20060;-39
2021/07/16 01:15:05;;;;;;;12.25;6.95;;;17.30;99.90;;;;;;5030802;28;20125;-39
2021/07/16 01:17:33;;;;;;;13.70;7.10;;;17.20;99.90;;;;;;5016876;28;20470;-40
2021/07/16 01:20:03;;;;;;;10.98;6.70;;;17.30;99.90;;;;;;5030896;28;20029;-40
2021/07/16 01:22:31;;;;;;;15.70;8.32;;;17.30;99.90;;;;;;5018474;28;20505;-39
2021/07/16 01:24:59;;;;;;;11.05;6.68;;;17.30;99.90;;;;;;4990989;28;20490;-39
2021/07/16 01:27:25;;;;;;;8.95;6.88;;;17.20;99.90;;;;;;5015522;28;20473;-40
2021/07/16 01:29:51;;;;;;;12.55;6.63;;;17.20;99.90;;;;;;5012661;28;20449;-40
2021/07/16 01:32:18;;;;;;;15.15;7.60;;;17.30;99.90;;;;;;5018894;28;20025;-40
2021/07/16 01:34:47;;;;;;;11.68;7.22;;;17.30;99.90;;;;;;5014532;28;20014;-39
2021/07/16 01:37:14;;;;;;;15.10;7.65;;;17.30;99.90;;;;;;5016479;28;20312;-39
2021/07/16 01:39:40;;;;;;;12.98;7.65;;;17.30;99.90;;;;;;5016271;28;20424;-40
2021/07/16 01:42:11;;;;;;;10.05;6.85;;;17.20;99.90;;;;;;5014172;28;20018;-40
2021/07/16 01:44:39;;;;;;;12.45;6.53;;;17.20;99.90;;;;;;5018810;28;20057;-40
2021/07/16 01:47:05;;;;;;;11.43;7.15;;;17.20;99.90;;;;;;5013239;28;20013;-41
2021/07/16 01:49:31;;;;;;;16.27;7.68;;;17.20;99.90;;;;;;5020424;28;20465;-39
2021/07/16 01:51:57;;;;;;;8.75;6.45;;;17.20;99.90;;;;;;5011116;28;20010;-40
2021/07/16 01:54:23;;;;;;;13.85;7.55;;;17.20;99.90;;;;;;5021249;28;20037;-39
2021/07/16 01:56:49;;;;;;;13.45;6.90;;;17.30;99.90;;;;;;5011159;28;20022;-39
2021/07/16 01:59:15;;;;;;;14.70;7.05;;;17.20;99.90;;;;;;5021399;28;20018;-39
2021/07/16 02:01:40;;;;;;;12.18;7.25;;;17.20;99.90;;;;;;5024430;28;20493;-39
2021/07/16 02:04:06;;;;;;;17.73;7.10;;;17.20;99.90;;;;;;5017456;28;20032;-39
2021/07/16 02:06:32;;;;;;;12.90;7.40;;;17.20;99.90;;;;;;5028534;28;20023;-39
2021/07/16 02:08:59;;;;;;;17.77;8.15;;;17.20;99.90;;;;;;5018368;28;20433;-40
2021/07/16 02:11:26;;;;;;;12.07;7.63;;;17.20;99.90;;;;;;5029285;28;20112;-39
2021/07/16 02:13:52;;;;;;;14.60;7.43;;;17.20;99.90;;;;;;5019914;28;20021;-39
2021/07/16 02:16:19;;;;;;;15.35;8.10;;;17.20;99.90;;;;;;5027924;28;20416;-40
2021/07/16 02:18:51;;;;;;;16.30;8.13;;;17.10;99.90;;;;;;5022054;28;20084;-39
2021/07/16 02:21:17;;;;;;;13.38;7.70;;;17.20;99.90;;;;;;5024884;28;20222;-39
2021/07/16 02:23:43;;;;;;;15.77;7.57;;;17.10;99.90;;;;;;5023729;28;20092;-39
2021/07/16 02:26:09;;;;;;;17.58;8.18;;;17.10;99.90;;;;;;5022972;28;20429;-39
2021/07/16 02:28:35;;;;;;;14.70;7.60;;;17.10;99.90;;;;;;5025521;28;20105;-40
2021/07/16 02:31:04;;;;;;;13.02;7.32;;;17.00;99.90;;;;;;5020002;28;20473;-39
2021/07/16 02:33:30;;;;;;;13.20;6.82;;;17.00;99.90;;;;;;5027991;28;20017;-40
2021/07/16 02:35:56;;;;;;;13.80;6.65;;;17.00;99.90;;;;;;5017959;28;20028;-40
2021/07/16 02:38:22;;;;;;;14.35;6.95;;;17.00;99.90;;;;;;5027178;28;20024;-39
2021/07/16 02:40:48;;;;;;;16.08;7.22;;;17.10;99.90;;;;;;5018915;28;20449;-40
2021/07/16 02:43:14;;;;;;;10.95;6.72;;;17.00;99.90;;;;;;5029020;28;20108;-40
2021/07/16 02:45:42;;;;;;;9.77;6.57;;;17.10;99.90;;;;;;5016541;28;20021;-39
2021/07/16 02:48:08;;;;;;;11.70;6.40;;;17.00;99.90;;;;;;5028952;28;20458;-39
2021/07/16 02:50:36;;;;;;;12.52;6.30;;;17.00;99.90;;;;;;5016239;28;20063;-38
2021/07/16 02:53:02;;;;;;;14.38;6.68;;;17.10;99.90;;;;;;5029185;28;20049;-38
2021/07/16 02:55:28;;;;;;;14.27;6.47;;;17.00;99.90;;;;;;5017020;28;20076;-39
2021/07/16 02:57:54;;;;;;;14.20;7.15;;;17.00;99.90;;;;;;5028856;28;20025;-38
2021/07/16 03:00:22;;;;;;;12.93;6.93;;;17.00;99.90;;;;;;5022165;28;20063;-40
2021/07/16 03:02:50;;;;;;;14.70;6.95;;;17.00;99.90;;;;;;5029373;28;20032;-39
2021/07/16 03:05:21;;;;;;;12.85;6.43;;;17.00;99.90;;;;;;5021983;28;20032;-39
2021/07/16 03:07:48;;;;;;;17.52;7.32;;;16.90;99.90;;;;;;5024793;28;20033;-39
2021/07/16 03:10:19;;;;;;;14.75;7.40;;;16.90;99.90;;;;;;5023398;28;20026;-39
2021/07/16 03:12:45;;;;;;;9.52;5.53;;;16.90;99.90;;;;;;5023044;28;20120;-39
2021/07/16 03:15:16;;;;;;;11.05;6.65;;;16.90;99.90;;;;;;5025775;28;20339;-39
2021/07/16 03:17:42;;;;;;;13.13;6.43;;;16.90;99.90;;;;;;5023062;28;20026;-38
2021/07/16 03:20:18;;;;;;;11.35;6.07;;;16.90;99.90;;;;;;5030800;28;20032;-38
2021/07/16 03:22:44;;;;;;;12.68;6.93;;;16.80;99.90;;;;;;5024112;28;20029;-39
2021/07/16 03:25:13;;;;;;;13.18;6.32;;;16.80;99.90;;;;;;5030925;28;20017;-39
2021/07/16 03:27:39;;;;;;;14.23;6.50;;;16.80;99.90;;;;;;5022000;28;20052;-39
2021/07/16 03:30:17;;;;;;;10.45;6.15;;;16.80;99.90;;;;;;5031560;28;20056;-40
2021/07/16 03:32:44;;;;;;;10.32;6.05;;;16.80;99.90;;;;;;5021118;28;20033;-39
2021/07/16 03:35:10;;;;;;;13.35;5.68;;;16.80;99.90;;;;;;5031530;28;20021;-39
2021/07/16 03:37:37;;;;;;;15.80;5.90;;;16.80;99.90;;;;;;5020331;28;20014;-38
2021/07/16 03:40:04;;;;;;;13.88;6.28;;;16.70;99.90;;;;;;5013183;28;20038;-40
2021/07/16 03:42:29;;;;;;;12.88;5.90;;;16.80;99.90;;;;;;5024545;28;20103;-39
2021/07/16 03:44:55;;;;;;;14.73;6.55;;;16.70;99.90;;;;;;5012543;28;20058;-39
2021/07/16 03:47:21;;;;;;;11.40;5.30;;;16.70;99.90;;;;;;5024887;28;20025;-39
2021/07/16 03:49:46;;;;;;;8.43;5.00;;;16.70;99.90;;;;;;5014066;28;20069;-39
2021/07/16 03:52:12;;;;;;;17.35;6.60;;;16.70;99.90;;;;;;5022515;28;20385;-39
2021/07/16 03:54:39;;;;;;;13.35;6.22;;;16.70;99.90;;;;;;5015195;28;20026;-39
2021/07/16 03:57:05;;;;;;;14.43;6.20;;;16.70;99.90;;;;;;5020088;28;20099;-39
2021/07/16 03:59:32;;;;;;;14.50;6.22;;;16.70;99.90;;;;;;5016415;28;20022;-38
2021/07/16 04:01:58;;;;;;;8.48;4.78;;;16.70;99.90;;;;;;5022735;28;20088;-39
2021/07/16 04:04:24;;;;;;;8.43;4.78;;;16.80;99.90;;;;;;5025133;28;20104;-39
2021/07/16 04:06:58;;;;;;;9.88;5.13;;;16.70;99.90;;;;;;5028876;28;20113;-39
2021/07/16 04:09:29;;;;;;;14.45;5.45;;;16.80;99.90;;;;;;5023398;28;20453;-39
2021/07/16 04:12:06;;;;;;;12.50;5.60;;;16.80;99.90;;;;;;5030151;28;20045;-39
2021/07/16 04:14:37;;;;;;;10.48;5.78;;;16.80;99.90;;;;;;5022609;28;20021;-39
2021/07/16 04:17:06;;;;;;;15.52;5.10;;;16.80;99.90;;;;;;5030370;28;20029;-39
2021/07/16 04:19:31;;;;;;;13.68;5.65;;;16.70;99.90;;;;;;5021158;28;20044;-40
2021/07/16 04:21:57;;;;;;;10.68;5.32;;;16.70;99.90;;;;;;5030903;28;20037;-40
2021/07/16 04:24:23;;;;;;;14.43;6.18;;;16.70;99.90;;;;;;5019939;28;20045;-39
2021/07/16 04:26:48;;;;;;;11.30;5.30;;;16.70;99.90;;;;;;5030845;28;20049;-39
2021/07/16 04:29:14;;;;;;;17.20;5.80;;;16.70;99.90;;;;;;5019067;28;20030;-40
2021/07/16 04:31:39;;;;;;;14.07;5.10;;;16.70;99.90;;;;;;5031166;28;20029;-40
2021/07/16 04:34:05;;;;;;;15.15;6.00;;;16.70;99.90;;;;;;5018746;28;20485;-39
2021/07/16 04:36:30;;;;;;;13.90;5.63;;;16.70;99.90;;;;;;5031288;28;20029;-39
2021/07/16 04:38:56;;;;;;;14.85;5.10;;;16.70;99.90;;;;;;5019803;28;20030;-39
2021/07/16 04:41:21;;;;;;;15.95;5.15;;;16.80;99.90;;;;;;5029712;28;20033;-39
2021/07/16 04:43:47;;;;;;;12.80;5.18;;;16.80;99.90;;;;;;5022503;28;20355;-39
2021/07/16 04:46:13;;;;;;;12.25;5.10;;;16.90;99.90;;;;;;5028246;28;20365;-39
2021/07/16 04:48:38;;;;;;;14.77;5.72;;;16.90;99.90;;;;;;5024018;28;20021;-39
2021/07/16 04:51:04;;;;;;;11.30;4.60;;;16.90;99.90;;;;;;5026068;28;20052;-39
2021/07/16 04:53:29;;;;;;;10.85;4.47;;;16.90;99.90;;;;;;5027072;28;20492;-40
2021/07/16 04:55:55;;;;;;;14.52;4.68;;;16.90;99.90;;;;;;5021975;28;20025;-39
2021/07/16 04:58:21;;;;;;;16.38;4.60;;;16.90;99.90;;;;;;5029793;28;20021;-39
2021/07/16 05:00:46;;;;;;;12.43;4.38;;;16.90;99.90;;;;;;5015633;28;20038;-39
2021/07/16 05:03:12;;;;;;;7.28;3.67;;;16.90;99.90;;;;;;5011879;28;20021;-39
2021/07/16 05:05:37;;;;;;;12.20;4.35;;;16.90;99.90;;;;;;5022298;28;21067;-39
2021/07/16 05:08:03;;;;;;;16.10;4.30;;;16.90;99.90;;;;;;5011138;28;20026;-39
2021/07/16 05:10:29;;;;;;;12.80;4.38;;;17.00;99.90;;;;;;5016968;28;20049;-39
2021/07/16 05:12:54;;;;;;;16.33;4.10;;;17.00;99.90;;;;;;5031204;28;20036;-39
2021/07/16 05:15:20;;;;;;;11.43;3.60;;;17.00;99.90;;;;;;5018275;28;20107;-39
2021/07/16 05:17:46;;;;;;;11.85;3.53;;;17.10;99.90;;;;;;5030075;28;20480;-39
2021/07/16 05:20:12;;;;;;;10.27;3.80;;;17.10;99.90;;;;;;5019980;28;20418;-40
2021/07/16 05:22:37;;;;;;;10.23;3.20;;;17.10;99.90;;;;;;5028934;28;20032;-39
2021/07/16 05:25:04;;;;;;;10.02;3.75;;;17.20;99.90;;;;;;5022231;28;20540;-39
2021/07/16 05:27:30;;;;;;;11.07;4.10;;;17.20;99.90;;;;;;5026407;28;20113;-39
2021/07/16 05:29:56;;;;;;;12.20;3.95;;;17.20;99.90;;;;;;5024954;28;20104;-40
2021/07/16 05:32:21;;;;;;;12.15;3.78;;;17.20;99.90;;;;;;5023675;28;20030;-39
2021/07/16 05:34:47;;;;;;;11.85;3.92;;;17.10;99.90;;;;;;5027552;28;20020;-39
2021/07/16 05:37:13;;;;;;;10.10;3.80;;;17.10;99.90;;;;;;5021016;28;20044;-39
2021/07/16 05:39:38;;;;;;;11.55;3.78;;;17.10;99.90;;;;;;5027742;28;20033;-39
2021/07/16 05:42:04;;;;;;;14.50;3.58;;;17.10;99.90;;;;;;5019685;28;20030;-39
2021/07/16 05:44:31;;;;;;;13.90;4.30;;;17.10;99.90;;;;;;5028163;28;20022;-39
2021/07/16 05:46:57;;;;;;;12.18;4.43;;;17.20;99.90;;;;;;5019506;28;20148;-39
2021/07/16 05:49:23;;;;;;;11.38;3.60;;;17.30;99.90;;;;;;5029842;28;20014;-39
2021/07/16 05:51:48;;;;;;;10.90;3.42;;;17.30;99.90;;;;;;5017173;28;20527;-39
2021/07/16 05:54:14;;;;;;;10.60;3.20;;;17.30;99.90;;;;;;5030575;28;20030;-39
2021/07/16 05:56:41;;;;;;;10.75;3.88;;;17.40;99.90;;;;;;5017222;28;20466;-39
2021/07/16 05:59:08;;;;;;;9.55;3.40;;;17.50;99.90;;;;;;5030024;28;20029;-39
2021/07/16 06:01:34;;;;;;;10.18;3.20;;;17.60;99.90;;;;;;5017092;28;20128;-39
2021/07/16 06:04:03;;;;;;;12.80;3.85;;;17.70;99.90;;;;;;5029994;28;20372;-39
2021/07/16 06:06:29;;;;;;;10.82;3.60;;;17.80;99.90;;;;;;5020317;28;20021;-39
2021/07/16 06:08:54;;;;;;;11.02;3.75;;;17.90;99.90;;;;;;5026549;28;20027;-39
2021/07/16 06:11:20;;;;;;;9.30;3.22;;;18.00;99.90;;;;;;5023428;28;20044;-39
2021/07/16 06:13:46;;;;;;;13.32;4.20;;;18.10;99.90;;;;;;5022599;28;20064;-39
2021/07/16 06:16:11;;;;;;;9.65;3.33;;;18.10;99.90;;;;;;5026845;28;20021;-39
2021/07/16 06:18:37;;;;;;;16.25;3.67;;;18.00;99.90;;;;;;5020403;28;20094;-39
2021/07/16 06:21:06;;;;;;;10.77;3.30;;;18.00;99.90;;;;;;5027873;28;20596;-39
2021/07/16 06:23:31;;;;;;;10.15;3.60;;;17.90;99.90;;;;;;5018110;28;20028;-40
2021/07/16 06:25:57;;;;;;;12.10;3.67;;;17.90;99.90;;;;;;5027832;28;20030;-39
2021/07/16 06:28:22;;;;;;;11.15;3.50;;;17.90;99.90;;;;;;5017940;28;20029;-39
2021/07/16 06:30:48;;;;;;;10.82;3.42;;;17.90;99.90;;;;;;5030431;28;20533;-39
2021/07/16 06:33:14;;;;;;;10.05;3.20;;;17.90;99.90;;;;;;5016212;28;20504;-39
2021/07/16 06:35:39;;;;;;;13.68;3.90;;;17.90;99.90;;;;;;5029279;28;20041;-39
2021/07/16 06:38:05;;;;;;;10.25;3.28;;;17.90;99.90;;;;;;5017286;28;20054;-39
2021/07/16 06:40:30;;;;;;;8.43;3.00;;;17.90;99.90;;;;;;5028587;28;20029;-39
2021/07/16 06:42:56;;;;;;;11.30;3.40;;;17.90;99.90;;;;;;5019232;28;20018;-39
2021/07/16 06:45:22;;;;;;;12.75;4.15;;;18.00;99.90;;;;;;5026971;28;20609;-39
2021/07/16 06:47:47;;;;;;;11.50;4.03;;;17.90;99.90;;;;;;5020570;28;20018;-39
2021/07/16 06:50:13;;;;;;;15.32;4.20;;;17.90;99.90;;;;;;5025378;28;20029;-39
2021/07/16 06:52:38;;;;;;;12.13;3.75;;;17.90;99.90;;;;;;5023108;28;20117;-39
2021/07/16 06:55:05;;;;;;;12.38;3.53;;;18.00;99.90;;;;;;5022080;28;20057;-40
2021/07/16 06:57:30;;;;;;;13.25;3.80;;;18.00;99.90;;;;;;5025970;28;20017;-39
2021/07/16 06:59:56;;;;;;;15.25;3.88;;;18.00;99.90;;;;;;5019729;28;20364;-39
2021/07/16 07:02:23;;;;;;;16.70;5.10;;;18.10;99.90;;;;;;5013008;28;20053;-39
2021/07/16 07:04:48;;;;;;;9.05;3.50;;;18.10;99.90;;;;;;5020994;28;20014;-39
2021/07/16 07:07:14;;;;;;;11.52;3.78;;;18.20;99.90;;;;;;5010563;28;20052;-39
2021/07/16 07:09:40;;;;;;;11.77;4.05;;;18.20;99.90;;;;;;5016168;28;20025;-39
2021/07/16 07:12:06;;;;;;;12.88;3.80;;;18.20;99.90;;;;;;5008890;28;20042;-38
2021/07/16 07:14:32;;;;;;;16.23;3.75;;;18.30;99.90;;;;;;5020934;28;20083;-39
2021/07/16 07:16:57;;;;;;;15.10;3.58;;;18.30;99.90;;;;;;5009210;28;20022;-39
2021/07/16 07:19:23;;;;;;;10.38;3.63;;;18.40;99.90;;;;;;5021038;28;20064;-39
2021/07/16 07:21:48;;;;;;;11.35;3.45;;;18.30;99.90;;;;;;5009312;28;20026;-39
2021/07/16 07:24:14;;;;;;;11.65;3.90;;;18.30;99.90;;;;;;5017701;28;20052;-39
2021/07/16 07:26:39;;;;;;;20.65;3.97;;;18.30;99.90;;;;;;5012013;28;20026;-39
2021/07/16 07:29:05;;;;;;;16.40;3.95;;;18.30;99.90;;;;;;5016461;28;20437;-38
2021/07/16 07:31:30;;;;;;;11.05;3.60;;;18.30;99.90;;;;;;5012827;28;20508;-39
2021/07/16 07:33:56;;;;;;;19.83;4.28;;;18.30;99.90;;;;;;5013544;28;20108;-38
2021/07/16 07:36:22;;;;;;;17.20;4.35;;;18.30;99.90;;;;;;5015431;28;20029;-39
2021/07/16 07:38:48;;;;;;;8.50;3.70;;;18.30;99.90;;;;;;5010964;28;20465;-39
2021/07/16 07:41:13;;;;;;;11.75;3.58;;;18.40;99.90;;;;;;5019435;28;20041;-39
2021/07/16 07:43:39;;;;;;;7.85;3.03;;;18.50;99.90;;;;;;5009749;28;20021;-39
2021/07/16 07:46:04;;;;;;;10.75;3.70;;;18.60;99.90;;;;;;5020043;28;20018;-39
2021/07/16 07:48:30;;;;;;;16.33;4.20;;;18.60;99.90;;;;;;5008388;28;20410;-39
2021/07/16 07:50:57;;;;;;;14.13;4.30;;;18.60;99.90;;;;;;5020821;28;20018;-40
2021/07/16 07:53:22;;;;;;;12.25;3.88;;;18.50;99.90;;;;;;5008651;28;20252;-38
2021/07/16 07:55:48;;;;;;;9.90;3.75;;;18.40;99.90;;;;;;5020207;28;20455;-39
2021/07/16 07:58:14;;;;;;;11.85;3.40;;;18.40;99.90;;;;;;5008790;28;20734;-39
2021/07/16 08:00:39;;;;;;;14.77;4.30;;;18.50;99.90;;;;;;5017491;28;20048;-39
2021/07/16 08:03:05;;;;;;;11.65;3.58;;;18.50;99.90;;;;;;5009526;28;20034;-38
2021/07/16 08:05:30;;;;;;;16.45;4.40;;;18.50;99.90;;;;;;5020214;28;20029;-39
2021/07/16 08:07:56;;;;;;;13.07;4.03;;;18.60;99.90;;;;;;5016026;28;20030;-40
2021/07/16 08:10:22;;;;;;;9.48;3.35;;;18.70;99.90;;;;;;5018233;28;20032;-39
2021/07/16 08:12:48;;;;;;;16.60;4.10;;;18.90;99.90;;;;;;5018016;28;20404;-39
2021/07/16 08:15:16;;;;;;;17.77;5.00;;;18.90;99.90;;;;;;5016203;28;20025;-40
2021/07/16 08:17:42;;;;;;;16.50;4.15;;;19.00;99.90;;;;;;5020502;28;20033;-39
2021/07/16 08:20:08;;;;;;;12.65;3.83;;;19.00;99.90;;;;;;5013597;28;20033;-39
2021/07/16 08:22:35;;;;;;;14.57;4.47;;;19.00;99.90;;;;;;5022232;28;20033;-40
2021/07/16 08:25:00;;;;;;;11.88;3.50;;;19.10;99.90;;;;;;5013439;28;20052;-39
2021/07/16 08:27:26;;;;;;;15.80;4.40;;;19.20;99.90;;;;;;5022185;28;20062;-40
2021/07/16 08:29:52;;;;;;;14.07;4.10;;;19.20;99.90;;;;;;5012374;28;20018;-39
2021/07/16 08:32:18;;;;;;;14.95;4.15;;;19.20;99.90;;;;;;5023965;28;20033;-39
2021/07/16 08:34:43;;;;;;;18.33;4.55;;;19.20;99.90;;;;;;5010926;28;20022;-39
2021/07/16 08:37:09;;;;;;;16.65;4.63;;;19.10;99.90;;;;;;5024767;28;20026;-39
2021/07/16 08:39:35;;;;;;;14.23;4.13;;;19.10;99.90;;;;;;5010982;28;20032;-39
2021/07/16 08:42:03;;;;;;;13.48;3.95;;;19.10;99.90;;;;;;5023392;28;20479;-39
2021/07/16 08:44:30;;;;;;;15.90;3.90;;;19.20;99.90;;;;;;5012041;28;20010;-39
2021/07/16 08:46:56;;;;;;;18.15;3.83;;;19.30;99.90;;;;;;5020398;28;20468;-40
2021/07/16 08:49:24;;;;;;;14.60;4.38;;;19.50;99.90;;;;;;5014153;28;20351;-39
2021/07/16 08:51:50;;;;;;;13.23;4.10;;;19.70;99.90;;;;;;5018470;28;20049;-39
2021/07/16 08:54:17;;;;;;;16.70;4.22;;;19.70;99.90;;;;;;5017137;28;20596;-39
2021/07/16 08:56:43;;;;;;;15.63;3.80;;;19.90;99.90;;;;;;5016030;28;20025;-39
2021/07/16 08:59:09;;;;;;;19.15;4.80;;;20.00;99.90;;;;;;5019260;28;20052;-39
2021/07/16 09:01:36;;;;;;;22.38;4.70;;;19.90;99.90;;;;;;5015701;28;20037;-39
2021/07/16 09:04:05;;;;;;;14.85;4.05;;;19.90;99.90;;;;;;5021644;28;20344;-39
2021/07/16 09:06:43;;;;;;;12.27;4.07;;;20.00;99.90;;;;;;5028862;28;20054;-39
2021/07/16 09:09:10;;;;;;;17.95;4.88;;;20.10;99.90;;;;;;5010041;28;20029;-40
2021/07/16 09:11:40;;;;;;;14.25;3.72;;;20.30;99.90;;;;;;5028925;28;20022;-39
2021/07/16 09:14:05;;;;;;;17.48;5.07;;;20.60;99.90;;;;;;5019736;28;20470;-39
2021/07/16 09:16:31;;;;;;;22.95;5.40;;;20.90;99.10;;;;;;5028866;28;20104;-39
2021/07/16 09:18:58;;;;;;;14.32;4.25;;;20.90;99.40;;;;;;5019606;28;20018;-39
2021/07/16 09:21:23;;;;;;;16.05;4.43;;;21.10;99.00;;;;;;5030037;28;20041;-40
2021/07/16 09:23:49;;;;;;;16.30;4.30;;;21.10;98.30;;;;;;5017722;28;20029;-39
2021/07/16 09:26:25;;;;;;;14.50;4.03;;;21.10;98.60;;;;;;5030642;28;20026;-39
2021/07/16 09:28:51;;;;;;;18.63;5.30;;;21.10;98.00;;;;;;5017351;28;20022;-38
2021/07/16 09:31:25;;;;;;;16.77;4.60;;;20.90;98.30;;;;;;5031037;28;20100;-39
2021/07/16 09:34:00;;;;;;;15.88;4.25;;;20.80;98.50;;;;;;5018853;28;20101;-39
2021/07/16 09:36:34;;;;;;;13.50;4.40;;;20.60;98.40;;;;;;4989865;28;20022;-39
2021/07/16 09:39:09;;;;;;;17.33;4.65;;;20.40;98.80;;;;;;5019167;28;20080;-39
2021/07/16 09:41:50;;;;;;;12.63;3.85;;;20.30;99.10;;;;;;4990120;28;20092;-39
2021/07/16 09:44:27;;;;;;;17.73;4.68;;;20.20;99.40;;;;;;5019502;28;20021;-39
2021/07/16 09:47:18;;;;;;;18.52;4.47;;;20.00;98.90;;;;;;5010623;28;20116;-39
2021/07/16 09:49:49;;;;;;;17.27;4.38;;;19.90;99.20;;;;;;5022226;28;20029;-39
2021/07/16 09:52:18;;;;;;;17.00;4.30;;;19.70;99.60;;;;;;5010051;28;20045;-39
2021/07/16 09:55:18;;;;;;;16.77;5.25;;;19.60;99.80;;;;;;5022392;28;20096;-40
2021/07/16 09:57:48;;;;;;;15.38;4.93;;;19.50;99.80;;;;;;5009277;28;20398;-39
2021/07/16 10:00:17;;;;;;;14.65;4.57;;;19.40;99.90;;;;;;5016432;28;20392;-39
2021/07/16 10:02:54;;;;;;;16.80;4.78;;;19.40;99.90;;;;;;5011907;28;20030;-38
2021/07/16 10:05:20;;;;;;;13.60;3.92;;;19.30;99.90;;;;;;5017017;28;20472;-38
2021/07/16 10:07:47;;;;;;;14.88;4.95;;;19.40;99.90;;;;;;5029601;28;20519;-38
2021/07/16 10:10:15;;;;;;;12.43;4.22;;;19.40;99.90;;;;;;5017591;28;20469;-39
2021/07/16 10:12:44;;;;;;;14.88;4.10;;;19.40;99.90;;;;;;5029244;28;20048;-38
2021/07/16 10:15:12;;;;;;;14.27;3.75;;;19.50;99.90;;;;;;5017955;28;20470;-38
2021/07/16 10:17:38;;;;;;;19.02;4.70;;;19.50;99.90;;;;;;5028368;28;20532;-38
2021/07/16 10:20:12;;;;;;;22.45;5.03;;;19.60;99.80;;;;;;5019990;28;20056;-39
2021/07/16 10:22:39;;;;;;;16.05;4.47;;;19.60;99.90;;;;;;5027708;28;20017;-38
2021/07/16 10:25:07;;;;;;;18.30;5.20;;;19.60;99.90;;;;;;5021267;28;20485;-37
2021/07/16 10:27:33;;;;;;;19.50;4.13;;;19.60;99.90;;;;;;5024093;28;20029;-39
2021/07/16 10:30:16;;;;;;;17.83;5.05;;;19.60;99.90;;;;;;5023585;28;20021;-39
2021/07/16 10:32:45;;;;;;;12.30;4.15;;;19.60;99.90;;;;;;5024429;28;20029;-38
2021/07/16 10:35:29;;;;;;;14.70;4.00;;;19.60;99.90;;;;;;5023588;28;20029;-38
2021/07/16 10:38:00;;;;;;;17.90;5.07;;;19.70;99.90;;;;;;5025686;28;20052;-38
2021/07/16 10:40:36;;;;;;;15.60;4.60;;;19.80;99.90;;;;;;5021173;28;20516;-38
2021/07/16 10:43:02;;;;;;;11.15;3.78;;;19.90;99.90;;;;;;5025348;28;20021;-38
2021/07/16 10:45:37;;;;;;;13.98;3.72;;;20.00;99.90;;;;;;5022613;28;20049;-38
2021/07/16 10:48:20;;;;;;;9.57;3.30;;;20.10;99.90;;;;;;5023660;28;20153;-38
2021/07/16 10:50:48;;;;;;;19.17;4.53;;;20.20;99.90;;;;;;5022025;28;20420;-38
2021/07/16 10:53:16;;;;;;;17.40;4.22;;;20.20;99.90;;;;;;5023430;28;20025;-38
2021/07/16 10:55:42;;;;;;;16.05;4.22;;;20.20;99.90;;;;;;5023840;28;20069;-38
2021/07/16 10:58:18;;;;;;;13.63;3.90;;;20.20;99.90;;;;;;5021760;28;20025;-38
2021/07/16 11:00:44;;;;;;;14.85;4.35;;;20.00;99.90;;;;;;5024572;28;20061;-38
2021/07/16 11:03:13;;;;;;;16.55;4.80;;;19.90;99.90;;;;;;5029730;28;20499;-38
2021/07/16 11:05:39;;;;;;;14.05;4.40;;;19.90;99.90;;;;;;5022678;28;20068;-38
2021/07/16 11:08:42;;;;;;;16.50;4.45;;;19.80;99.90;;;;;;5019378;28;20469;-38
2021/07/16 11:11:07;;;;;;;15.80;4.78;;;19.70;99.90;;;;;;5013768;28;20424;-38
2021/07/16 11:13:46;;;;;;;15.35;4.80;;;19.60;99.90;;;;;;5017364;28;20060;-38
2021/07/16 11:16:39;;;;;;;18.50;5.05;;;19.70;99.90;;;;;;5011790;28;20371;-38
2021/07/16 11:19:09;;;;;;;13.18;4.53;;;19.90;99.90;;;;;;5014348;28;20030;-38
2021/07/16 11:21:47;;;;;;;17.90;4.83;;;20.10;99.90;;;;;;5013241;28;20034;-38
2021/07/16 11:24:18;;;;;;;14.70;4.60;;;20.20;99.90;;;;;;5015573;28;20710;-38
2021/07/16 11:26:55;;;;;;;15.52;4.72;;;20.40;99.90;;;;;;5013387;28;20029;-38
2021/07/16 11:29:29;;;;;;;14.73;4.20;;;20.60;99.40;;;;;;5014729;28;20140;-38
2021/07/16 11:32:01;;;;;;;10.60;3.80;;;20.60;99.70;;;;;;5014356;28;20013;-38
2021/07/16 11:34:27;;;;;;;12.82;4.30;;;20.60;99.70;;;;;;5015144;28;20033;-38
2021/07/16 11:36:54;;;;;;;13.50;3.80;;;20.60;98.60;;;;;;5012063;28;20014;-38
2021/07/16 11:39:29;;;;;;;15.40;4.38;;;20.50;99.20;;;;;;5021857;28;20025;-38
2021/07/16 11:41:55;;;;;;;10.77;4.05;;;20.60;99.50;;;;;;5015048;28;20054;-38
2021/07/16 11:44:29;;;;;;;14.48;4.00;;;20.70;98.90;;;;;;5022168;28;20022;-38
2021/07/16 11:46:56;;;;;;;16.52;5.28;;;20.70;99.10;;;;;;5013870;28;20026;-38
2021/07/16 11:49:28;;;;;;;11.40;3.72;;;20.80;99.00;;;;;;5023935;28;20373;-39
2021/07/16 11:51:59;;;;;;;15.73;3.97;;;20.90;99.00;;;;;;5014220;28;20029;-38
2021/07/16 11:54:26;;;;;;;13.88;3.90;;;20.90;99.10;;;;;;5023406;28;20114;-38
2021/07/16 11:56:57;;;;;;;15.45;3.80;;;20.90;99.20;;;;;;5013910;28;20540;-38
2021/07/16 11:59:24;;;;;;;15.07;4.40;;;20.80;99.10;;;;;;5020315;28;20022;-38
2021/07/16 12:02:06;;;;;;;16.55;4.93;;;20.70;98.70;;;;;;5020853;28;20034;-38
2021/07/16 12:04:32;;;;;;;21.52;4.90;;;20.60;99.00;;;;;;5019638;28;20020;-38
2021/07/16 12:06:57;;;;;;;16.10;4.43;;;20.50;99.10;;;;;;5033035;28;20021;-38
2021/07/16 12:09:30;;;;;;;15.88;4.35;;;20.60;99.50;;;;;;5019219;28;20022;-38
2021/07/16 12:12:05;;;;;;;17.02;4.28;;;20.70;99.60;;;;;;5032396;28;20030;-38
2021/07/16 12:14:44;;;;;;;15.15;3.90;;;20.80;99.30;;;;;;5018282;28;20032;-38
2021/07/16 12:17:13;;;;;;;16.20;4.50;;;20.80;99.50;;;;;;5032352;28;20028;-38
2021/07/16 12:19:42;;;;;;;17.58;4.43;;;20.80;99.10;;;;;;5018476;28;20032;-38
2021/07/16 12:22:08;;;;;;;19.60;4.80;;;20.90;99.30;;;;;;5032759;28;20039;-38
2021/07/16 12:24:34;;;;;;;13.20;4.63;;;20.80;98.80;;;;;;5019069;28;20030;-38
2021/07/16 12:27:11;;;;;;;11.38;4.00;;;20.80;99.10;;;;;;4992362;28;20026;-38
2021/07/16 12:29:37;;;;;;;15.27;4.13;;;20.80;99.30;;;;;;5018647;28;20026;-38
2021/07/16 12:32:04;;;;;;;12.85;3.78;;;20.80;99.30;;;;;;5012913;28;20095;-39
2021/07/16 12:34:30;;;;;;;14.75;4.82;;;20.90;99.40;;;;;;5020060;28;20013;-38
2021/07/16 12:37:13;;;;;;;13.98;3.88;;;21.10;99.40;;;;;;5015419;28;20424;-38
2021/07/16 12:39:41;;;;;;;15.13;4.60;;;21.20;99.30;;;;;;5019635;28;20053;-38
2021/07/16 12:42:18;;;;;;;13.50;4.22;;;21.30;99.10;;;;;;5015843;28;20026;-38